Time;durP1;ratioP1;P1;durP2;ratioP2;P2;SDS_P1;SDS_P2;PMS_P1;PMS_P2;Temp;Humidity;BMP_temperature;BMP_pressure;BME280_temperature;BME280_humidity;BME280_pressure;Samples;Min_cycle;Max_cycle;Signal;HPM_P1;HPM_P2
2022/09/29 00:00:29;;;;;;;19.38;9.43;;;6.80;99.90;;;;;;5013826;28;20202;-77
2022/09/29 00:02:55;;;;;;;18.65;9.18;;;6.80;99.90;;;;;;5011146;28;20166;-78
2022/09/29 00:05:21;;;;;;;19.60;9.48;;;6.70;99.90;;;;;;5007687;28;20077;-77
2022/09/29 00:07:47;;;;;;;18.52;9.43;;;6.70;99.90;;;;;;5002989;28;20440;-77
2022/09/29 00:10:12;;;;;;;14.55;8.60;;;6.70;99.90;;;;;;4998014;28;20100;-77
2022/09/29 00:12:39;;;;;;;19.75;9.80;;;6.70;99.90;;;;;;5000137;28;20120;-79
2022/09/29 00:15:06;;;;;;;18.35;9.55;;;6.60;99.90;;;;;;5003756;28;20057;-75
2022/09/29 00:17:32;;;;;;;21.83;10.32;;;6.60;99.90;;;;;;5019677;28;20336;-76
2022/09/29 00:19:57;;;;;;;20.55;9.98;;;6.60;99.90;;;;;;5003525;28;20057;-76
2022/09/29 00:22:23;;;;;;;18.83;9.50;;;6.60;99.90;;;;;;5004363;28;20042;-76
2022/09/29 00:24:49;;;;;;;17.13;9.02;;;6.60;99.90;;;;;;5002520;28;20102;-76
2022/09/29 00:27:16;;;;;;;18.60;9.50;;;6.60;99.90;;;;;;5006272;28;20057;-77
2022/09/29 00:29:42;;;;;;;18.45;9.40;;;6.60;99.90;;;;;;5001296;28;20172;-77
2022/09/29 00:32:08;;;;;;;19.52;10.25;;;6.60;99.90;;;;;;4999777;28;20050;-75
2022/09/29 00:34:34;;;;;;;21.70;9.60;;;6.50;99.90;;;;;;4997948;28;20130;-76
2022/09/29 00:37:00;;;;;;;20.42;10.00;;;6.50;99.90;;;;;;5015567;28;20058;-78
2022/09/29 00:39:26;;;;;;;23.65;9.98;;;6.50;99.90;;;;;;5008411;28;20053;-82
2022/09/29 00:41:51;;;;;;;21.77;10.52;;;6.40;99.90;;;;;;5012259;28;20042;-80
2022/09/29 00:44:20;;;;;;;22.55;10.05;;;6.40;99.90;;;;;;4995499;28;20112;-77
2022/09/29 00:46:51;;;;;;;23.00;10.05;;;6.40;99.90;;;;;;5008333;28;20050;-76
2022/09/29 00:49:25;;;;;;;20.33;10.15;;;6.40;99.90;;;;;;5004915;28;20042;-81
2022/09/29 00:51:58;;;;;;;19.33;9.27;;;6.30;99.90;;;;;;5005316;28;20129;-75
2022/09/29 00:54:29;;;;;;;18.27;9.90;;;6.30;99.90;;;;;;5018750;28;20057;-75
2022/09/29 00:56:57;;;;;;;21.08;9.98;;;6.20;99.90;;;;;;5013259;28;20048;-80
2022/09/29 00:59:41;;;;;;;23.52;11.10;;;6.20;99.90;;;;;;4996773;28;20050;-78
2022/09/29 01:02:07;;;;;;;22.33;10.93;;;6.20;99.90;;;;;;4996179;28;20097;-75
2022/09/29 01:04:34;;;;;;;21.60;10.45;;;6.20;99.90;;;;;;4996894;28;20085;-80
2022/09/29 01:07:00;;;;;;;23.02;10.05;;;6.20;99.90;;;;;;4995647;28;20165;-83
2022/09/29 01:09:31;;;;;;;24.23;10.88;;;6.20;99.90;;;;;;4995579;28;20352;-76
2022/09/29 01:11:58;;;;;;;23.00;10.30;;;6.20;99.90;;;;;;4978439;28;20089;-75
2022/09/29 01:14:25;;;;;;;20.02;10.27;;;6.20;99.90;;;;;;4995811;28;20466;-74
2022/09/29 01:16:50;;;;;;;23.73;11.25;;;6.20;99.90;;;;;;4994571;28;20042;-76
2022/09/29 01:19:54;;;;;;;25.70;10.98;;;6.20;99.90;;;;;;4996685;28;20103;-75
2022/09/29 01:22:30;;;;;;;24.88;10.68;;;6.10;99.90;;;;;;4983731;28;20055;-77
2022/09/29 01:25:14;;;;;;;25.02;11.20;;;6.10;99.90;;;;;;4997069;28;20057;-75
2022/09/29 01:27:40;;;;;;;30.38;11.65;;;6.10;99.90;;;;;;4994580;28;20096;-78
2022/09/29 01:30:20;;;;;;;24.20;11.30;;;6.00;99.90;;;;;;4994276;28;20437;-76
2022/09/29 01:33:11;;;;;;;25.60;11.80;;;6.00;99.90;;;;;;4995214;28;20054;-75
2022/09/29 01:36:06;;;;;;;23.35;11.35;;;6.00;99.90;;;;;;4994214;28;20050;-76
2022/09/29 01:38:34;;;;;;;24.00;11.05;;;5.90;99.90;;;;;;4994154;28;20093;-74
2022/09/29 01:41:11;;;;;;;25.35;10.32;;;5.90;99.90;;;;;;4994322;28;20086;-74
2022/09/29 01:43:46;;;;;;;22.45;10.50;;;5.90;99.90;;;;;;4993880;28;20042;-81
2022/09/29 01:46:35;;;;;;;23.50;10.15;;;5.90;99.90;;;;;;4992671;28;20046;-79
2022/09/29 01:49:02;;;;;;;25.38;10.65;;;5.90;99.90;;;;;;4994269;28;20130;-74
2022/09/29 01:51:34;;;;;;;22.88;10.50;;;5.80;99.90;;;;;;4977413;28;20058;-75
2022/09/29 01:54:05;;;;;;;23.25;10.43;;;5.80;99.90;;;;;;4993029;28;20475;-74
2022/09/29 01:56:49;;;;;;;24.40;11.80;;;5.80;99.90;;;;;;4994418;28;20042;-74
2022/09/29 01:59:25;;;;;;;25.35;11.23;;;5.80;99.90;;;;;;4993690;28;20050;-75
2022/09/29 02:01:55;;;;;;;21.13;9.88;;;5.80;99.90;;;;;;4977253;28;20050;-75
2022/09/29 02:04:32;;;;;;;29.15;10.60;;;5.80;99.90;;;;;;4993465;28;20046;-75
2022/09/29 02:07:03;;;;;;;37.55;11.18;;;5.70;99.90;;;;;;4994824;28;20038;-74
2022/09/29 02:09:39;;;;;;;24.55;10.45;;;5.70;99.90;;;;;;4994058;28;20038;-73
2022/09/29 02:12:07;;;;;;;26.80;9.63;;;5.70;99.90;;;;;;4993771;28;20064;-79
2022/09/29 02:14:42;;;;;;;25.73;10.65;;;5.60;99.90;;;;;;4993969;28;20065;-75
2022/09/29 02:17:19;;;;;;;38.38;10.88;;;5.60;99.90;;;;;;4993711;28;20376;-83
2022/09/29 02:19:49;;;;;;;44.78;11.85;;;5.60;99.90;;;;;;4993487;28;20077;-74
2022/09/29 02:22:16;;;;;;;47.20;12.27;;;5.60;99.90;;;;;;4993743;28;20042;-74
2022/09/29 02:24:42;;;;;;;36.90;11.55;;;5.50;99.90;;;;;;4992616;28;20109;-75
2022/09/29 02:27:08;;;;;;;43.67;12.35;;;5.50;99.90;;;;;;4993601;28;20086;-75
2022/09/29 02:29:35;;;;;;;27.90;11.35;;;5.50;99.90;;;;;;4976308;28;20077;-74
2022/09/29 02:32:03;;;;;;;24.50;11.68;;;5.50;99.90;;;;;;4993660;28;20433;-74
2022/09/29 02:34:33;;;;;;;26.38;11.15;;;5.50;99.90;;;;;;4992342;28;20061;-74
2022/09/29 02:37:20;;;;;;;26.30;12.00;;;5.40;99.90;;;;;;4993997;28;20042;-74
2022/09/29 02:39:58;;;;;;;28.35;12.25;;;5.40;99.90;;;;;;4992747;28;20046;-74
2022/09/29 02:42:57;;;;;;;39.20;12.35;;;5.40;99.90;;;;;;4961415;28;20474;-75
2022/09/29 02:45:29;;;;;;;26.55;11.43;;;5.40;99.90;;;;;;4992093;28;20089;-76
2022/09/29 02:48:26;;;;;;;40.40;12.32;;;5.40;99.90;;;;;;4995511;28;20069;-75
2022/09/29 02:51:12;;;;;;;42.90;12.55;;;5.40;99.90;;;;;;5011206;28;20041;-77
2022/09/29 02:53:56;;;;;;;50.53;13.15;;;5.40;99.90;;;;;;4996326;28;20062;-83
2022/09/29 02:56:34;;;;;;;113.55;13.63;;;5.40;99.90;;;;;;4993328;28;20368;-74
2022/09/29 02:59:07;;;;;;;108.20;12.63;;;5.40;99.90;;;;;;4976846;28;20130;-76
2022/09/29 03:01:33;;;;;;;150.82;14.52;;;5.40;99.90;;;;;;4993298;28;20051;-75
2022/09/29 03:03:59;;;;;;;108.00;14.50;;;5.40;99.90;;;;;;4993454;28;20072;-75
2022/09/29 03:06:26;;;;;;;61.40;12.25;;;5.30;99.90;;;;;;4993769;28;20505;-75
2022/09/29 03:08:52;;;;;;;109.90;14.18;;;5.30;99.90;;;;;;4993370;28;20514;-74
2022/09/29 03:11:18;;;;;;;116.18;14.90;;;5.30;99.90;;;;;;4994657;28;20062;-74
2022/09/29 03:13:43;;;;;;;92.90;13.77;;;5.30;99.90;;;;;;4997324;28;20042;-78
2022/09/29 03:16:09;;;;;;;106.30;14.43;;;5.30;99.90;;;;;;4996757;28;20483;-75
2022/09/29 03:18:35;;;;;;;126.20;14.70;;;5.20;99.90;;;;;;4997324;28;20051;-75
2022/09/29 03:21:01;;;;;;;129.00;15.35;;;5.30;99.90;;;;;;4996475;28;20064;-75
2022/09/29 03:23:26;;;;;;;131.90;14.63;;;5.30;99.90;;;;;;4996514;28;20129;-78
2022/09/29 03:25:52;;;;;;;109.50;15.00;;;5.40;99.90;;;;;;4996535;28;20076;-75
2022/09/29 03:28:18;;;;;;;117.65;14.90;;;5.30;99.90;;;;;;4997549;28;20507;-80
2022/09/29 03:30:44;;;;;;;116.47;14.15;;;5.30;99.90;;;;;;4995657;28;20109;-73
2022/09/29 03:33:10;;;;;;;104.85;14.00;;;5.30;99.90;;;;;;4979541;28;20098;-75
2022/09/29 03:35:36;;;;;;;67.93;13.88;;;5.20;99.90;;;;;;4979341;28;20050;-73
2022/09/29 03:38:02;;;;;;;63.00;14.70;;;5.20;99.90;;;;;;4995609;28;20034;-72
2022/09/29 03:40:28;;;;;;;42.17;12.35;;;5.10;99.90;;;;;;4996504;28;20490;-73
2022/09/29 03:42:53;;;;;;;40.40;13.52;;;5.10;99.90;;;;;;4996746;28;20061;-75
2022/09/29 03:45:19;;;;;;;34.40;12.15;;;5.00;99.90;;;;;;4995265;28;20051;-81
2022/09/29 03:47:45;;;;;;;37.55;12.00;;;5.00;99.90;;;;;;4997560;28;20053;-74
2022/09/29 03:50:12;;;;;;;37.92;12.73;;;5.00;99.90;;;;;;4981641;28;20054;-74
2022/09/29 03:52:38;;;;;;;27.30;12.20;;;5.00;99.90;;;;;;4989413;28;20089;-73
2022/09/29 03:55:04;;;;;;;31.27;12.70;;;4.90;99.90;;;;;;4987931;28;20069;-74
2022/09/29 03:57:29;;;;;;;26.75;13.02;;;4.90;99.90;;;;;;5001601;28;20082;-76
2022/09/29 03:59:56;;;;;;;34.00;12.35;;;4.90;99.90;;;;;;4983182;28;20142;-76
2022/09/29 04:02:22;;;;;;;33.13;12.25;;;4.80;99.90;;;;;;4996576;28;20065;-82
2022/09/29 04:04:47;;;;;;;53.08;13.50;;;4.80;99.90;;;;;;4995752;28;20109;-74
2022/09/29 04:07:14;;;;;;;41.67;13.82;;;4.80;99.90;;;;;;4995615;28;20482;-73
2022/09/29 04:09:40;;;;;;;41.03;13.70;;;4.80;99.90;;;;;;4995170;28;20516;-73
2022/09/29 04:12:05;;;;;;;48.70;14.05;;;4.80;99.90;;;;;;4994960;28;20129;-73
2022/09/29 04:14:31;;;;;;;61.78;13.60;;;4.70;99.90;;;;;;4996435;28;20082;-74
2022/09/29 04:16:57;;;;;;;68.88;14.88;;;4.70;99.90;;;;;;4995824;28;20217;-76
2022/09/29 04:19:23;;;;;;;48.33;13.85;;;4.70;99.90;;;;;;4995655;28;20073;-76
2022/09/29 04:21:49;;;;;;;41.67;12.50;;;4.70;99.90;;;;;;4995681;28;20188;-74
2022/09/29 04:24:15;;;;;;;45.97;14.00;;;4.70;99.90;;;;;;4995310;28;20046;-74
2022/09/29 04:26:40;;;;;;;50.22;14.20;;;4.70;99.90;;;;;;4995660;28;20065;-75
2022/09/29 04:29:06;;;;;;;33.25;13.77;;;4.70;99.90;;;;;;4996104;28;20046;-75
2022/09/29 04:31:32;;;;;;;41.05;12.95;;;4.70;99.90;;;;;;4995044;28;20052;-74
2022/09/29 04:33:58;;;;;;;51.03;14.20;;;4.70;99.90;;;;;;4995407;28;20050;-74
2022/09/29 04:36:23;;;;;;;47.60;15.50;;;4.70;99.90;;;;;;4994765;28;20046;-74
2022/09/29 04:38:50;;;;;;;55.97;13.95;;;4.60;99.90;;;;;;4994535;28;20170;-73
2022/09/29 04:41:16;;;;;;;82.10;14.32;;;4.60;99.90;;;;;;4995297;28;20089;-73
2022/09/29 04:43:42;;;;;;;91.80;15.30;;;4.60;99.90;;;;;;4996926;28;20092;-74
2022/09/29 04:46:09;;;;;;;70.28;14.32;;;4.60;99.90;;;;;;4997153;28;20055;-74
2022/09/29 04:48:36;;;;;;;36.92;13.82;;;4.50;99.90;;;;;;4994911;28;20050;-78
2022/09/29 04:51:03;;;;;;;71.53;14.05;;;4.50;99.90;;;;;;4995166;28;20050;-74
2022/09/29 04:53:29;;;;;;;43.83;14.60;;;4.50;99.90;;;;;;4995217;28;20394;-82
2022/09/29 04:55:54;;;;;;;77.85;15.05;;;4.50;99.90;;;;;;4995598;28;20058;-74
2022/09/29 04:58:20;;;;;;;68.55;15.77;;;4.50;99.90;;;;;;5000622;28;20054;-75
2022/09/29 05:00:46;;;;;;;47.67;14.93;;;4.60;99.90;;;;;;4996408;28;20090;-76
2022/09/29 05:03:11;;;;;;;33.30;13.98;;;4.50;99.90;;;;;;4996446;28;20109;-80
2022/09/29 05:05:37;;;;;;;26.75;13.68;;;4.50;99.90;;;;;;4994849;28;20057;-74
2022/09/29 05:08:03;;;;;;;36.97;14.48;;;4.40;99.90;;;;;;4995131;28;20121;-73
2022/09/29 05:10:30;;;;;;;37.58;14.43;;;4.50;99.90;;;;;;4995687;28;20466;-74
2022/09/29 05:12:56;;;;;;;44.37;13.83;;;4.40;99.90;;;;;;4996027;28;20060;-74
2022/09/29 05:15:21;;;;;;;82.25;15.73;;;4.40;99.90;;;;;;4993864;28;20137;-75
2022/09/29 05:17:47;;;;;;;73.32;14.57;;;4.40;99.90;;;;;;4995146;28;20137;-74
2022/09/29 05:20:13;;;;;;;70.68;13.95;;;4.40;99.90;;;;;;4995068;28;20047;-76
2022/09/29 05:22:39;;;;;;;69.00;14.80;;;4.40;99.90;;;;;;4994349;28;20112;-73
2022/09/29 05:25:07;;;;;;;51.35;14.50;;;4.40;99.90;;;;;;4994509;28;20479;-74
2022/09/29 05:27:34;;;;;;;58.97;15.10;;;4.40;99.90;;;;;;4977727;28;20067;-78
2022/09/29 05:30:16;;;;;;;;;;;4.40;99.90;;;;;;4997723;28;20517;-73
2022/09/29 05:32:46;;;;;;;33.97;12.63;;;4.30;99.90;;;;;;4997384;28;19933;-74
2022/09/29 05:35:11;;;;;;;29.48;12.82;;;4.30;99.90;;;;;;5001056;28;20026;-74
2022/09/29 05:37:37;;;;;;;45.55;13.82;;;4.30;99.90;;;;;;4982292;28;20132;-74
2022/09/29 05:40:03;;;;;;;28.25;13.52;;;4.30;99.90;;;;;;4999417;28;20046;-73
2022/09/29 05:42:30;;;;;;;25.95;11.95;;;4.20;99.90;;;;;;4984586;28;20061;-73
2022/09/29 05:44:56;;;;;;;29.83;12.02;;;4.20;99.90;;;;;;5012433;28;20081;-73
2022/09/29 05:47:22;;;;;;;25.05;12.65;;;4.20;99.90;;;;;;5000525;28;20050;-73
2022/09/29 05:49:48;;;;;;;26.80;12.60;;;4.20;99.90;;;;;;4995855;28;20126;-73
2022/09/29 05:52:14;;;;;;;24.15;12.27;;;4.20;99.90;;;;;;4994600;28;20703;-73
2022/09/29 05:54:40;;;;;;;24.65;12.95;;;4.20;99.90;;;;;;4994934;28;20133;-74
2022/09/29 05:57:05;;;;;;;23.15;11.82;;;4.20;99.90;;;;;;4960931;28;20050;-74
2022/09/29 05:59:33;;;;;;;26.50;11.85;;;4.10;99.90;;;;;;4978020;28;20091;-74
2022/09/29 06:01:58;;;;;;;24.63;11.93;;;4.10;99.90;;;;;;4993509;28;20050;-74
2022/09/29 06:04:24;;;;;;;22.70;11.75;;;4.10;99.90;;;;;;4994267;28;20046;-75
2022/09/29 06:06:50;;;;;;;22.20;12.13;;;4.10;99.90;;;;;;4993900;28;20053;-74
2022/09/29 06:09:15;;;;;;;24.05;13.05;;;4.10;99.90;;;;;;4994342;28;20053;-74
2022/09/29 06:11:41;;;;;;;23.05;11.98;;;4.10;99.90;;;;;;4993973;28;20078;-73
2022/09/29 06:14:07;;;;;;;23.10;12.73;;;4.20;99.90;;;;;;4992547;28;20129;-73
2022/09/29 06:16:33;;;;;;;25.05;12.80;;;4.20;99.90;;;;;;4976719;28;20116;-75
2022/09/29 06:19:00;;;;;;;26.00;13.75;;;4.20;99.90;;;;;;4976488;28;20118;-75
2022/09/29 06:21:27;;;;;;;30.50;14.35;;;4.30;99.90;;;;;;4993603;28;20489;-75
2022/09/29 06:23:54;;;;;;;32.80;13.98;;;4.30;99.90;;;;;;4993903;28;20054;-74
2022/09/29 06:26:20;;;;;;;36.47;14.73;;;4.30;99.90;;;;;;4992969;28;20165;-74
2022/09/29 06:28:46;;;;;;;41.33;13.50;;;4.30;99.90;;;;;;4994217;28;20115;-73
2022/09/29 06:31:14;;;;;;;45.50;14.60;;;4.40;99.90;;;;;;4993829;28;20053;-74
2022/09/29 06:33:40;;;;;;;46.05;14.15;;;4.40;99.90;;;;;;4992216;28;20059;-74
2022/09/29 06:38:59;;;;;;;79.78;16.27;;;4.50;99.90;;;;;;4994046;28;20406;-74
2022/09/29 06:41:26;;;;;;;63.65;15.82;;;4.50;99.90;;;;;;4992255;28;20471;-74
2022/09/29 06:43:51;;;;;;;48.40;15.25;;;4.60;99.90;;;;;;4992578;28;20085;-73
2022/09/29 06:46:17;;;;;;;52.50;15.38;;;4.60;99.90;;;;;;4991102;28;20113;-74
2022/09/29 06:48:44;;;;;;;35.53;15.38;;;4.70;99.90;;;;;;4993372;28;20049;-73
2022/09/29 06:51:10;;;;;;;54.25;14.75;;;4.70;99.90;;;;;;4976721;28;20062;-73
2022/09/29 06:53:35;;;;;;;48.33;14.07;;;4.90;99.90;;;;;;4992522;28;20514;-80
2022/09/29 06:56:01;;;;;;;44.63;14.90;;;4.90;99.90;;;;;;4993414;28;20057;-73
2022/09/29 06:58:28;;;;;;;33.42;14.35;;;5.00;99.90;;;;;;4993800;28;20058;-75
2022/09/29 07:00:54;;;;;;;32.97;15.25;;;5.10;99.90;;;;;;4993289;28;20106;-73
2022/09/29 07:03:20;;;;;;;31.85;15.23;;;5.10;99.90;;;;;;4993627;28;20133;-74
2022/09/29 07:05:46;;;;;;;34.83;15.48;;;5.20;99.90;;;;;;4993155;28;20129;-74
2022/09/29 07:08:12;;;;;;;44.17;15.05;;;5.30;99.90;;;;;;4992320;28;20069;-75
2022/09/29 07:10:38;;;;;;;47.88;16.58;;;5.40;99.90;;;;;;4992120;28;20129;-75
2022/09/29 07:13:04;;;;;;;74.28;15.75;;;5.40;99.90;;;;;;4976829;28;20390;-74
2022/09/29 07:15:31;;;;;;;46.57;15.90;;;5.50;99.90;;;;;;4992272;28;20130;-74
2022/09/29 07:18:00;;;;;;;42.10;16.67;;;5.60;99.90;;;;;;4975946;28;20051;-74
2022/09/29 07:20:27;;;;;;;65.20;16.67;;;5.70;99.90;;;;;;4992290;28;20034;-75
2022/09/29 07:22:54;;;;;;;84.43;18.67;;;5.80;99.90;;;;;;4993496;28;20042;-74
2022/09/29 07:25:20;;;;;;;55.78;16.85;;;5.80;99.90;;;;;;4992210;28;20439;-79
2022/09/29 07:27:47;;;;;;;53.03;17.23;;;5.80;99.90;;;;;;4993697;28;20038;-75
2022/09/29 07:30:13;;;;;;;40.33;15.73;;;6.00;99.90;;;;;;4976786;28;20108;-74
2022/09/29 07:32:39;;;;;;;64.17;17.27;;;6.10;99.90;;;;;;4975945;28;20042;-74
2022/09/29 07:35:06;;;;;;;55.20;15.70;;;6.30;99.90;;;;;;4991651;28;20277;-73
2022/09/29 07:37:31;;;;;;;45.42;15.70;;;6.40;99.90;;;;;;4991966;28;20363;-74
2022/09/29 07:39:57;;;;;;;49.15;16.05;;;6.40;99.90;;;;;;4991670;28;20054;-74
2022/09/29 07:42:23;;;;;;;54.92;15.75;;;6.50;99.90;;;;;;4992635;28;20470;-73
2022/09/29 07:44:49;;;;;;;58.97;15.70;;;6.60;99.90;;;;;;4977476;28;20054;-74
2022/09/29 07:47:14;;;;;;;42.00;15.07;;;6.70;99.90;;;;;;4995761;28;20046;-73
2022/09/29 07:49:41;;;;;;;46.03;15.15;;;6.80;99.90;;;;;;5003718;28;20038;-74
2022/09/29 07:52:07;;;;;;;36.17;14.25;;;6.90;99.90;;;;;;5000794;28;20090;-74
2022/09/29 07:54:33;;;;;;;38.43;15.00;;;7.00;99.90;;;;;;4999643;28;20055;-77
2022/09/29 07:57:00;;;;;;;36.72;15.10;;;7.00;99.90;;;;;;4995627;28;20288;-75
2022/09/29 07:59:26;;;;;;;28.92;15.27;;;7.10;99.90;;;;;;4996840;28;20110;-75
2022/09/29 08:01:52;;;;;;;34.30;14.97;;;7.10;99.90;;;;;;4979561;28;20087;-75
2022/09/29 08:04:18;;;;;;;47.58;16.63;;;7.30;99.90;;;;;;4979654;28;20097;-75
2022/09/29 08:06:45;;;;;;;38.08;17.70;;;7.30;99.90;;;;;;4979185;28;20420;-74
2022/09/29 08:09:11;;;;;;;32.20;16.50;;;7.30;99.90;;;;;;4996139;28;20073;-74
2022/09/29 08:11:39;;;;;;;36.38;15.88;;;7.20;99.90;;;;;;4996611;28;20054;-74
2022/09/29 08:14:06;;;;;;;35.28;16.17;;;7.20;99.90;;;;;;4980292;28;20462;-74
2022/09/29 08:16:33;;;;;;;35.72;16.13;;;7.40;99.90;;;;;;4995039;28;20497;-75
2022/09/29 08:19:00;;;;;;;120.20;20.23;;;7.50;99.90;;;;;;4994773;28;20050;-74
2022/09/29 08:21:26;;;;;;;33.72;16.23;;;7.60;99.90;;;;;;4994760;28;20408;-74
2022/09/29 08:23:52;;;;;;;37.58;17.95;;;7.50;99.90;;;;;;4994511;28;20046;-74
2022/09/29 08:26:20;;;;;;;33.53;17.48;;;7.60;99.90;;;;;;4994475;28;20049;-74
2022/09/29 08:28:52;;;;;;;31.05;16.60;;;7.70;99.90;;;;;;4995468;28;20050;-78
2022/09/29 08:31:21;;;;;;;34.17;17.17;;;7.80;99.90;;;;;;4996277;28;20108;-77
2022/09/29 08:33:51;;;;;;;33.53;16.60;;;7.80;99.90;;;;;;4996866;28;20062;-74
2022/09/29 08:36:19;;;;;;;34.25;17.08;;;8.00;99.90;;;;;;4997193;28;20050;-77
2022/09/29 08:38:47;;;;;;;32.35;16.23;;;8.10;99.90;;;;;;5015582;28;20110;-75
2022/09/29 08:41:50;;;;;;;31.45;15.45;;;8.30;99.90;;;;;;5004894;28;20042;-76
2022/09/29 08:44:34;;;;;;;30.55;15.65;;;8.50;99.90;;;;;;4995773;28;20073;-75
2022/09/29 08:47:29;;;;;;;33.50;15.05;;;8.50;99.90;;;;;;4995387;28;20050;-76
2022/09/29 08:50:01;;;;;;;27.77;15.15;;;8.50;99.90;;;;;;4999905;28;20195;-77
2022/09/29 08:52:34;;;;;;;31.90;15.18;;;8.60;99.90;;;;;;4998568;28;20058;-75
2022/09/29 08:55:21;;;;;;;30.33;15.23;;;8.70;99.90;;;;;;4999587;28;20046;-76
2022/09/29 08:57:54;;;;;;;31.40;15.48;;;8.80;99.90;;;;;;4983930;28;20054;-77
2022/09/29 09:00:22;;;;;;;31.70;15.18;;;8.90;99.90;;;;;;4998588;28;20046;-76
2022/09/29 09:03:21;;;;;;;30.00;15.60;;;8.90;99.90;;;;;;5000608;28;20050;-76
2022/09/29 09:06:06;;;;;;;27.05;14.18;;;9.00;99.90;;;;;;4994696;28;20094;-75
2022/09/29 09:12:26;;;;;;;29.00;14.77;;;9.20;99.90;;;;;;4995551;28;20140;-74
2022/09/29 09:15:28;;;;;;;30.17;15.07;;;9.20;99.90;;;;;;4996908;28;20354;-76
2022/09/29 09:18:43;;;;;;;34.65;15.77;;;9.30;99.90;;;;;;4999012;28;20108;-75
2022/09/29 09:21:23;;;;;;;32.60;16.70;;;9.40;99.90;;;;;;4994558;28;20065;-76
2022/09/29 09:23:54;;;;;;;34.20;16.20;;;9.40;99.90;;;;;;4997436;28;20050;-76
2022/09/29 09:26:36;;;;;;;34.40;16.02;;;9.60;99.90;;;;;;4996286;28;20049;-77
2022/09/29 09:29:12;;;;;;;35.42;16.67;;;9.60;99.90;;;;;;4995737;28;20046;-76
2022/09/29 09:31:59;;;;;;;32.95;15.82;;;9.60;99.90;;;;;;4994431;28;20054;-76
2022/09/29 09:34:52;;;;;;;33.78;16.45;;;9.70;99.90;;;;;;5000265;28;20093;-76
2022/09/29 09:37:38;;;;;;;31.33;16.60;;;9.80;99.90;;;;;;5000569;28;20112;-77
2022/09/29 09:40:19;;;;;;;35.75;16.60;;;9.80;99.90;;;;;;5000306;28;20051;-77
2022/09/29 09:43:07;;;;;;;31.15;16.05;;;9.80;99.90;;;;;;4964904;28;20153;-76
2022/09/29 09:45:44;;;;;;;33.90;15.63;;;9.80;99.90;;;;;;4998398;28;20065;-80
2022/09/29 09:48:54;;;;;;;33.88;16.20;;;9.80;99.90;;;;;;4996834;28;20129;-77
2022/09/29 09:51:37;;;;;;;39.22;16.60;;;9.90;99.90;;;;;;5000063;28;20092;-78
2022/09/29 09:54:23;;;;;;;34.38;16.73;;;9.90;99.90;;;;;;4999602;28;20502;-80
2022/09/29 09:57:01;;;;;;;36.42;17.27;;;9.90;99.90;;;;;;4996423;28;20479;-77
2022/09/29 09:59:39;;;;;;;32.53;15.95;;;10.00;99.90;;;;;;5000168;28;20085;-76
2022/09/29 10:02:18;;;;;;;31.63;14.90;;;10.10;99.90;;;;;;4997897;28;20058;-78
2022/09/29 10:04:48;;;;;;;35.17;16.02;;;10.30;99.90;;;;;;4998216;28;20043;-76
2022/09/29 10:07:13;;;;;;;32.58;15.57;;;10.30;99.90;;;;;;4998825;28;20068;-77
2022/09/29 10:09:39;;;;;;;28.60;15.10;;;10.50;99.90;;;;;;4996031;28;20092;-77
2022/09/29 10:12:13;;;;;;;29.55;14.30;;;10.50;99.90;;;;;;4993939;28;20513;-76
2022/09/29 10:14:42;;;;;;;28.67;13.93;;;10.60;99.90;;;;;;4995713;28;20419;-76
2022/09/29 10:17:12;;;;;;;50.70;22.83;;;10.70;99.90;;;;;;4993181;28;20124;-76
2022/09/29 10:20:02;;;;;;;25.33;11.48;;;10.90;99.90;;;;;;4994904;28;20046;-75
2022/09/29 10:22:29;;;;;;;23.52;11.73;;;10.90;99.90;;;;;;4999176;28;20435;-78
2022/09/29 10:25:16;;;;;;;25.33;12.27;;;10.90;99.90;;;;;;4999710;28;20384;-77
2022/09/29 10:27:42;;;;;;;;;;;11.00;99.90;;;;;;4997999;28;20351;-76
2022/09/29 10:30:17;;;;;;;;;;;11.10;99.90;;;;;;4997648;28;20238;-75
2022/09/29 10:32:44;;;;;;;23.35;11.40;;;11.30;99.90;;;;;;4994834;28;19921;-75
2022/09/29 10:35:26;;;;;;;23.90;11.70;;;11.40;99.90;;;;;;4977002;28;20108;-77
2022/09/29 10:38:05;;;;;;;25.02;12.57;;;11.50;99.90;;;;;;4996740;28;20112;-79
2022/09/29 10:40:31;;;;;;;23.67;11.65;;;11.50;99.90;;;;;;4998422;28;20129;-75
2022/09/29 10:42:57;;;;;;;24.95;10.75;;;11.60;99.90;;;;;;4993802;28;20112;-76
2022/09/29 10:45:28;;;;;;;23.38;11.60;;;11.70;99.90;;;;;;4993538;28;20119;-74
2022/09/29 10:47:57;;;;;;;24.52;11.38;;;11.80;99.90;;;;;;4995137;28;20049;-76
2022/09/29 10:50:50;;;;;;;26.73;11.60;;;11.90;99.90;;;;;;4999006;28;20046;-74
2022/09/29 10:53:32;;;;;;;20.90;10.70;;;11.90;99.90;;;;;;4966816;28;20058;-80
2022/09/29 10:56:04;;;;;;;23.63;12.88;;;12.00;99.90;;;;;;4997068;28;20089;-75
2022/09/29 10:58:53;;;;;;;24.90;11.63;;;12.10;99.90;;;;;;4997502;28;20505;-78
2022/09/29 11:01:19;;;;;;;25.95;12.82;;;12.10;99.90;;;;;;4998240;28;20156;-75
2022/09/29 11:04:14;;;;;;;23.17;11.30;;;12.20;99.90;;;;;;5000438;28;20094;-76
2022/09/29 11:06:42;;;;;;;;;;;12.20;99.90;;;;;;4997034;28;20494;-77
2022/09/29 11:09:16;;;;;;;29.23;13.20;;;12.30;99.90;;;;;;4999110;28;20017;-77
2022/09/29 11:11:48;;;;;;;25.30;12.18;;;12.30;99.90;;;;;;4997455;28;20050;-75
2022/09/29 11:14:36;;;;;;;30.30;13.55;;;12.30;99.90;;;;;;4996929;28;20121;-77
2022/09/29 11:17:25;;;;;;;25.90;12.90;;;12.40;99.90;;;;;;4988750;28;20058;-76
2022/09/29 11:19:53;;;;;;;28.52;14.18;;;12.50;99.90;;;;;;4993743;28;20050;-74
2022/09/29 11:22:42;;;;;;;31.20;14.75;;;12.50;99.90;;;;;;4994634;28;20050;-76
2022/09/29 11:25:38;;;;;;;27.52;13.52;;;12.50;99.90;;;;;;4992699;28;20065;-78
2022/09/29 11:28:24;;;;;;;25.77;13.32;;;12.60;99.90;;;;;;4993885;28;20054;-76
2022/09/29 11:31:29;;;;;;;26.50;12.27;;;12.60;99.90;;;;;;4998251;28;20104;-76
2022/09/29 11:34:04;;;;;;;28.27;12.68;;;12.60;99.90;;;;;;5011763;28;20057;-80
2022/09/29 11:36:52;;;;;;;29.77;13.10;;;12.70;99.90;;;;;;5013436;28;20104;-77
2022/09/29 11:39:39;;;;;;;26.75;14.32;;;12.70;99.90;;;;;;5004681;28;20137;-76
2022/09/29 11:42:24;;;;;;;34.60;13.90;;;12.80;99.90;;;;;;4985716;28;20054;-77
2022/09/29 11:45:17;;;;;;;30.00;14.57;;;12.90;99.90;;;;;;5006017;28;20061;-78
2022/09/29 11:48:12;;;;;;;31.10;15.35;;;13.30;99.90;;;;;;5008311;28;20128;-78
2022/09/29 11:50:55;;;;;;;30.60;15.32;;;13.10;99.90;;;;;;5004965;28;20054;-76
2022/09/29 11:53:52;;;;;;;26.30;13.00;;;13.10;99.90;;;;;;5006559;28;20046;-77
2022/09/29 11:56:21;;;;;;;;;;;13.10;99.90;;;;;;5002548;28;20073;-83
2022/09/29 11:58:51;;;;;;;25.35;13.23;;;13.30;99.90;;;;;;5001770;28;19925;-75
2022/09/29 12:01:23;;;;;;;25.25;12.45;;;13.40;99.90;;;;;;5004519;28;20047;-78
2022/09/29 12:04:11;;;;;;;28.85;12.60;;;13.50;99.90;;;;;;5001890;28;20050;-75
2022/09/29 12:06:57;;;;;;;29.10;13.57;;;13.50;99.90;;;;;;4999091;28;20046;-77
2022/09/29 12:09:42;;;;;;;25.77;12.35;;;13.50;99.90;;;;;;4998220;28;20090;-76
2022/09/29 12:12:38;;;;;;;22.52;11.02;;;13.40;99.90;;;;;;5000776;28;20069;-77
2022/09/29 12:15:28;;;;;;;22.25;10.38;;;13.40;99.90;;;;;;5013112;28;20102;-76
2022/09/29 12:17:58;;;;;;;15.57;7.97;;;;;;;;;;4995744;28;20058;-78
2022/09/29 12:20:30;;;;;;;15.60;8.00;;;;;;;;;;5002062;28;20103;-77
2022/09/29 12:23:00;;;;;;;17.33;9.07;;;13.60;99.90;;;;;;5012460;28;20053;-76
2022/09/29 12:25:29;;;;;;;14.93;7.78;;;13.50;99.90;;;;;;5011568;28;20065;-77
2022/09/29 12:28:04;;;;;;;12.90;6.45;;;13.50;99.90;;;;;;5010470;28;20042;-76
2022/09/29 12:30:42;;;;;;;14.55;6.95;;;13.60;99.90;;;;;;5011119;28;20089;-76
2022/09/29 12:33:20;;;;;;;14.43;7.47;;;13.60;99.90;;;;;;5009522;28;20096;-75
2022/09/29 12:36:42;;;;;;;11.32;5.43;;;13.60;99.90;;;;;;4997624;28;20050;-77
2022/09/29 12:38:57;;;;;;;13.30;6.70;;;13.70;99.90;;;;;;4995668;28;20059;-74
2022/09/29 12:41:27;;;;;;;16.83;8.90;;;13.70;99.90;;;;;;4998333;28;20145;-75
2022/09/29 12:44:13;;;;;;;16.20;7.85;;;13.70;99.90;;;;;;4995678;28;20197;-76
2022/09/29 12:47:13;;;;;;;14.90;6.47;;;13.70;99.90;;;;;;5004401;28;20150;-76
2022/09/29 12:50:09;;;;;;;10.43;5.43;;;13.70;99.90;;;;;;5008861;28;20320;-76
2022/09/29 12:52:48;;;;;;;16.25;6.50;;;13.90;99.90;;;;;;4990663;28;20054;-74
2022/09/29 12:55:44;;;;;;;12.48;6.13;;;13.90;99.90;;;;;;4981402;28;20128;-77
2022/09/29 12:58:25;;;;;;;13.38;6.20;;;14.00;99.90;;;;;;4982784;28;20137;-77
2022/09/29 13:01:01;;;;;;;13.77;6.75;;;14.10;99.90;;;;;;4997480;28;20454;-75
2022/09/29 13:03:40;;;;;;;13.45;6.70;;;14.20;99.90;;;;;;4998264;28;20505;-79
2022/09/29 13:06:40;;;;;;;15.52;6.97;;;14.30;99.90;;;;;;4999668;28;20073;-75
2022/09/29 13:09:25;;;;;;;12.43;6.32;;;14.20;99.90;;;;;;4999096;28;20100;-77
2022/09/29 13:12:09;;;;;;;11.23;5.32;;;14.30;99.90;;;;;;5002802;28;20502;-77